createdAt,value
2019-03-24T00:00:44.347Z,36.13
2019-03-24T00:03:14.653Z,35.40
2019-03-24T00:05:42.964Z,36.30
2019-03-24T00:08:11.598Z,43.03
2019-03-24T00:10:45.303Z,42.90
2019-03-24T00:13:13.487Z,46.70
2019-03-24T00:15:44.576Z,41.27
2019-03-24T00:18:21.323Z,45.30
2019-03-24T00:20:52.877Z,36.80
2019-03-24T00:23:20.924Z,38.67
2019-03-24T00:25:51.137Z,39.30
2019-03-24T00:28:19.580Z,35.20
2019-03-24T00:30:48.006Z,39.77
2019-03-24T00:33:16.005Z,37.67
2019-03-24T00:35:44.420Z,39.60
2019-03-24T00:38:12.495Z,38.80
2019-03-24T00:40:40.503Z,35.37
2019-03-24T00:43:08.940Z,38.13
2019-03-24T00:45:37.828Z,36.50
2019-03-24T00:48:05.817Z,38.63
2019-03-24T00:50:34.203Z,35.10
2019-03-24T00:53:02.520Z,37.67
2019-03-24T00:55:34.026Z,48.50
2019-03-24T00:58:04.615Z,34.07
2019-03-24T01:00:45.253Z,34.80
2019-03-24T01:03:18.104Z,40.80
2019-03-24T01:05:46.773Z,41.20
2019-03-24T01:08:14.910Z,42.33
2019-03-24T01:10:42.945Z,45.30
2019-03-24T01:13:12.444Z,42.17
2019-03-24T01:15:47.687Z,37.17
2019-03-24T01:18:10.295Z,42.40
2019-03-24T01:20:38.260Z,41.70
2019-03-24T01:23:06.243Z,38.43
2019-03-24T01:25:34.605Z,41.37
2019-03-24T01:28:02.631Z,38.80
2019-03-24T01:30:30.586Z,43.40
2019-03-24T01:32:58.640Z,38.37
2019-03-24T01:35:27.399Z,43.47
2019-03-24T01:37:55.428Z,48.33
2019-03-24T01:40:23.420Z,44.47
2019-03-24T01:42:51.446Z,42.60
2019-03-24T01:45:19.376Z,38.43
2019-03-24T01:47:47.418Z,40.33
2019-03-24T01:50:15.394Z,43.53
2019-03-24T01:52:43.392Z,41.80
2019-03-24T01:55:11.769Z,39.93
2019-03-24T01:57:39.780Z,43.63
2019-03-24T02:00:08.039Z,39.03
2019-03-24T02:02:36.079Z,40.10
2019-03-24T02:05:04.151Z,48.13
2019-03-24T02:07:32.140Z,41.50
2019-03-24T02:10:00.418Z,41.27
2019-03-24T02:12:28.572Z,48.27
2019-03-24T02:14:56.576Z,36.17
2019-03-24T02:17:24.980Z,39.27
2019-03-24T02:19:53.520Z,45.93
2019-03-24T02:22:22.123Z,39.80
2019-03-24T02:24:50.828Z,41.60
2019-03-24T02:27:18.933Z,40.77
2019-03-24T02:29:46.989Z,39.70
2019-03-24T02:32:15.103Z,39.47
2019-03-24T02:34:43.282Z,40.13
2019-03-24T02:37:11.284Z,47.53
2019-03-24T02:39:39.321Z,44.97
2019-03-24T02:42:07.341Z,43.03
2019-03-24T02:44:35.399Z,39.37
2019-03-24T02:47:03.411Z,43.03
2019-03-24T02:49:32.189Z,46.97
2019-03-24T02:52:00.216Z,43.73
2019-03-24T02:54:28.656Z,40.23
2019-03-24T02:56:56.666Z,44.43
2019-03-24T02:59:24.787Z,41.20
2019-03-24T03:01:53.157Z,40.97
2019-03-24T03:04:21.654Z,39.60
2019-03-24T03:06:49.667Z,38.27
2019-03-24T03:09:17.648Z,37.80
2019-03-24T03:11:45.655Z,45.17
2019-03-24T03:14:13.685Z,54.87
2019-03-24T03:16:41.719Z,42.40
2019-03-24T03:19:09.751Z,38.60
2019-03-24T03:21:37.767Z,41.10
2019-03-24T03:24:05.800Z,39.43
2019-03-24T03:26:33.862Z,37.87
2019-03-24T03:29:01.905Z,42.37
2019-03-24T03:31:29.906Z,40.83
2019-03-24T03:33:57.940Z,44.80
2019-03-24T03:36:25.955Z,41.43
2019-03-24T03:38:54.026Z,40.30
2019-03-24T03:41:22.027Z,40.93
2019-03-24T03:43:50.042Z,42.97
2019-03-24T03:46:18.072Z,40.00
2019-03-24T03:48:46.120Z,39.57
2019-03-24T03:51:14.113Z,46.10
2019-03-24T03:53:42.838Z,43.13
2019-03-24T03:56:10.839Z,45.43
2019-03-24T03:58:38.877Z,48.17
2019-03-24T04:01:07.903Z,43.00
2019-03-24T04:03:35.942Z,45.83
2019-03-24T04:06:03.961Z,42.33
2019-03-24T04:08:32.046Z,46.20
2019-03-24T04:11:00.045Z,47.20
2019-03-24T04:13:28.043Z,41.43
2019-03-24T04:15:56.372Z,41.53
2019-03-24T04:18:24.434Z,43.50
2019-03-24T04:20:53.038Z,45.77
2019-03-24T04:23:21.035Z,38.53
2019-03-24T04:25:49.073Z,36.90
2019-03-24T04:28:17.512Z,38.57
2019-03-24T04:30:46.060Z,38.87
2019-03-24T04:33:14.064Z,47.47
2019-03-24T04:35:42.153Z,45.60
2019-03-24T04:38:10.566Z,41.00
2019-03-24T04:40:38.621Z,42.30
2019-03-24T04:43:06.627Z,42.77
2019-03-24T04:45:34.679Z,46.43
2019-03-24T04:48:02.733Z,52.20
2019-03-24T04:50:30.777Z,45.70
2019-03-24T04:52:59.856Z,45.67
2019-03-24T04:55:27.896Z,43.77
2019-03-24T04:57:55.928Z,47.70
2019-03-24T05:00:42.353Z,39.73
2019-03-24T05:03:10.382Z,51.30
2019-03-24T05:05:39.290Z,47.10
2019-03-24T05:08:09.208Z,36.37
2019-03-24T05:10:37.249Z,43.27
2019-03-24T05:13:05.320Z,51.63
2019-03-24T05:15:33.385Z,43.17
2019-03-24T05:18:01.413Z,42.97
2019-03-24T05:20:29.517Z,52.93
2019-03-24T05:22:57.533Z,45.83
2019-03-24T05:25:26.109Z,43.97
2019-03-24T05:27:54.151Z,47.07
2019-03-24T05:30:22.294Z,40.13
2019-03-24T05:32:50.351Z,45.33
2019-03-24T05:35:20.195Z,44.10
2019-03-24T05:37:48.523Z,46.10
2019-03-24T05:40:16.573Z,47.40
2019-03-24T05:42:44.649Z,43.13
2019-03-24T05:45:12.832Z,40.33
2019-03-24T05:47:42.092Z,41.03
2019-03-24T05:50:29.383Z,53.30
2019-03-24T05:52:57.409Z,51.93
2019-03-24T05:55:28.584Z,45.70
2019-03-24T05:57:56.617Z,51.13
2019-03-24T06:00:24.775Z,48.30
2019-03-24T06:02:52.868Z,51.40
2019-03-24T06:05:20.944Z,55.67
2019-03-24T06:07:49.346Z,49.00
2019-03-24T06:10:17.649Z,49.90
2019-03-24T06:12:48.769Z,44.23
2019-03-24T06:15:16.901Z,45.37
2019-03-24T06:17:48.093Z,46.87
2019-03-24T06:20:15.741Z,47.83
2019-03-24T06:22:46.561Z,50.70
2019-03-24T06:25:14.982Z,44.63
2019-03-24T06:27:43.829Z,42.57
2019-03-24T06:30:19.653Z,44.43
2019-03-24T06:32:51.358Z,42.07
2019-03-24T06:35:19.748Z,51.60
2019-03-24T06:37:48.048Z,48.47
2019-03-24T06:40:16.121Z,49.07
2019-03-24T06:42:45.492Z,51.40
2019-03-24T06:45:14.801Z,50.07
2019-03-24T06:47:43.223Z,51.10
2019-03-24T06:50:11.544Z,53.77
2019-03-24T06:52:40.060Z,45.83
2019-03-24T06:55:08.577Z,45.50
2019-03-24T06:57:36.959Z,44.13
2019-03-24T07:00:06.873Z,52.73
2019-03-24T07:02:35.669Z,42.23
2019-03-24T07:05:04.310Z,48.10
2019-03-24T07:07:32.413Z,49.00
2019-03-24T07:10:00.502Z,45.27
2019-03-24T07:12:31.690Z,46.90
2019-03-24T07:14:59.783Z,43.70
2019-03-24T07:17:27.908Z,56.53
2019-03-24T07:19:55.932Z,41.37
2019-03-24T07:22:24.325Z,43.77
2019-03-24T07:24:52.532Z,50.00
2019-03-24T07:27:20.718Z,53.37
2019-03-24T07:29:48.872Z,46.50
2019-03-24T07:32:16.922Z,45.60
2019-03-24T07:34:50.936Z,47.30
2019-03-24T07:37:19.037Z,52.90
2019-03-24T07:39:47.117Z,52.53
2019-03-24T07:42:15.312Z,55.13
2019-03-24T07:44:43.407Z,46.47
2019-03-24T07:47:14.424Z,43.80
2019-03-24T07:49:42.525Z,49.03
2019-03-24T07:52:10.869Z,44.73
2019-03-24T07:54:38.924Z,50.80
2019-03-24T07:57:07.089Z,50.13
2019-03-24T07:59:35.120Z,48.57
2019-03-24T08:02:04.075Z,51.03
2019-03-24T08:04:32.154Z,56.27
2019-03-24T08:07:00.211Z,50.53
2019-03-24T08:09:28.280Z,64.83
2019-03-24T08:11:56.372Z,54.10
2019-03-24T08:14:24.602Z,53.60
2019-03-24T08:16:53.170Z,51.40
2019-03-24T08:19:21.294Z,55.47
2019-03-24T08:21:49.678Z,49.60
2019-03-24T08:24:17.796Z,57.20
2019-03-24T08:26:46.478Z,57.13
2019-03-24T08:29:14.837Z,53.20
2019-03-24T08:31:44.668Z,54.93
2019-03-24T08:34:19.812Z,49.57
2019-03-24T08:36:48.739Z,54.17
2019-03-24T08:39:17.180Z,56.27
2019-03-24T08:41:45.520Z,54.83
2019-03-24T08:44:13.969Z,57.83
2019-03-24T08:46:47.149Z,56.60
2019-03-24T08:49:40.307Z,56.33
2019-03-24T08:52:09.022Z,60.97
2019-03-24T08:54:48.297Z,58.30
2019-03-24T08:57:32.371Z,60.40
2019-03-24T09:00:06.629Z,62.93
2019-03-24T09:02:47.850Z,57.90
2019-03-24T09:05:18.959Z,63.00
2019-03-24T09:07:48.960Z,61.73
2019-03-24T09:10:17.009Z,61.17
2019-03-24T09:12:45.188Z,59.83
2019-03-24T09:15:13.694Z,62.97
2019-03-24T09:18:04.853Z,62.37
2019-03-24T09:20:41.548Z,70.37
2019-03-24T09:23:39.179Z,66.53
2019-03-24T09:26:08.649Z,59.07
2019-03-24T09:28:37.079Z,64.87
2019-03-24T09:31:07.093Z,72.20
2019-03-24T09:33:35.268Z,68.50
2019-03-24T09:36:03.497Z,64.83
2019-03-24T09:38:31.802Z,79.77
2019-03-24T09:41:02.762Z,65.00
2019-03-24T09:43:30.951Z,66.20
2019-03-24T09:45:59.094Z,74.90
2019-03-24T09:48:27.781Z,71.77
2019-03-24T09:50:55.939Z,68.67
2019-03-24T09:53:24.333Z,73.43
2019-03-24T09:55:55.313Z,65.40
2019-03-24T09:58:23.693Z,75.47
2019-03-24T10:00:51.866Z,70.87
2019-03-24T10:03:20.026Z,75.37
2019-03-24T10:05:48.321Z,74.40
2019-03-24T10:08:16.434Z,72.70
2019-03-24T10:10:44.747Z,72.53
2019-03-24T10:13:13.180Z,73.03
2019-03-24T10:15:41.341Z,67.03
2019-03-24T10:18:11.650Z,69.63
2019-03-24T10:20:39.788Z,73.27
2019-03-24T10:23:08.908Z,68.93
2019-03-24T10:25:37.139Z,69.70
2019-03-24T10:28:05.813Z,67.93
2019-03-24T10:30:38.985Z,66.83
2019-03-24T10:33:07.171Z,63.93
2019-03-24T10:35:35.879Z,70.77
2019-03-24T10:38:04.094Z,67.53
2019-03-24T10:40:32.237Z,71.43
2019-03-24T10:43:00.528Z,68.00
2019-03-24T10:45:28.666Z,64.10
2019-03-24T10:47:56.789Z,64.60
2019-03-24T10:50:25.159Z,76.43
2019-03-24T10:52:53.232Z,67.43
2019-03-24T10:55:21.462Z,68.73
2019-03-24T10:57:49.645Z,69.10
2019-03-24T11:00:42.447Z,66.43
2019-03-24T11:03:11.031Z,64.93
2019-03-24T11:05:39.560Z,64.80
2019-03-24T11:08:08.349Z,71.77
2019-03-24T11:10:39.420Z,67.40
2019-03-24T11:13:08.076Z,69.10
2019-03-24T11:15:36.529Z,64.17
2019-03-24T11:18:05.105Z,63.83
2019-03-24T11:20:33.830Z,64.20
2019-03-24T11:23:05.067Z,61.63
2019-03-24T11:25:33.235Z,60.87
2019-03-24T11:28:05.862Z,69.57
2019-03-24T11:30:34.322Z,67.57
2019-03-24T11:33:02.537Z,58.07
2019-03-24T11:35:31.373Z,60.93
2019-03-24T11:38:01.677Z,63.17
2019-03-24T11:40:30.107Z,73.50
2019-03-24T11:43:01.423Z,64.17
2019-03-24T11:45:29.864Z,73.63
2019-03-24T11:48:03.763Z,75.30
2019-03-24T11:50:32.201Z,69.90
2019-03-24T11:53:00.472Z,72.60
2019-03-24T11:55:28.625Z,71.97
2019-03-24T11:58:05.240Z,68.13
2019-03-24T12:00:38.955Z,70.20
2019-03-24T12:03:10.251Z,77.80
2019-03-24T12:05:38.411Z,69.17
2019-03-24T12:08:06.635Z,69.47
2019-03-24T12:10:35.070Z,79.60
2019-03-24T12:13:06.305Z,70.60
2019-03-24T12:15:34.520Z,73.20
2019-03-24T12:18:02.754Z,72.27
2019-03-24T12:20:30.844Z,69.63
2019-03-24T12:22:58.996Z,65.53
2019-03-24T12:25:27.350Z,68.57
2019-03-24T12:27:55.536Z,65.63
2019-03-24T12:30:23.689Z,69.77
2019-03-24T12:32:51.951Z,73.40
2019-03-24T12:35:23.163Z,72.60
2019-03-24T12:37:51.244Z,63.73
2019-03-24T12:40:19.442Z,65.93
2019-03-24T12:42:47.587Z,67.77
2019-03-24T12:45:15.790Z,74.87
2019-03-24T12:47:43.827Z,74.57
2019-03-24T12:50:13.968Z,66.03
2019-03-24T12:52:42.228Z,67.00
2019-03-24T12:55:10.472Z,78.50
2019-03-24T12:57:38.576Z,73.23
2019-03-24T13:00:08.324Z,62.23
2019-03-24T13:02:36.569Z,67.30
2019-03-24T13:05:06.675Z,70.47
2019-03-24T13:07:34.882Z,61.63
2019-03-24T13:10:03.308Z,68.20
2019-03-24T13:12:31.405Z,58.50
2019-03-24T13:14:59.566Z,65.43
2019-03-24T13:17:30.347Z,60.67
2019-03-24T13:19:58.905Z,59.90
2019-03-24T13:22:27.507Z,61.20
2019-03-24T13:24:55.644Z,52.80
2019-03-24T13:27:24.111Z,57.60
2019-03-24T13:29:52.222Z,56.47
2019-03-24T13:32:20.444Z,57.97
2019-03-24T13:34:48.638Z,57.77
2019-03-24T13:37:16.733Z,53.70
2019-03-24T13:39:44.788Z,51.17
2019-03-24T13:42:13.041Z,57.63
2019-03-24T13:44:41.158Z,56.50
2019-03-24T13:47:09.322Z,53.63
2019-03-24T13:49:37.885Z,55.23
2019-03-24T13:52:05.982Z,61.20
2019-03-24T13:54:34.075Z,55.90
2019-03-24T13:57:02.185Z,55.77
2019-03-24T13:59:30.349Z,66.37
2019-03-24T14:02:01.321Z,50.13
2019-03-24T14:04:29.512Z,53.00
2019-03-24T14:06:57.799Z,51.93
2019-03-24T14:09:26.343Z,64.73
2019-03-24T14:11:54.409Z,54.23
2019-03-24T14:14:22.524Z,56.27
2019-03-24T14:16:50.823Z,63.47
2019-03-24T14:19:18.948Z,57.17
2019-03-24T14:21:47.420Z,58.17
2019-03-24T14:24:15.509Z,56.17
2019-03-24T14:26:43.585Z,55.97
2019-03-24T14:29:12.128Z,52.97
2019-03-24T14:31:40.195Z,52.43
2019-03-24T14:34:08.359Z,48.10
2019-03-24T14:36:36.469Z,57.53
2019-03-24T14:39:05.833Z,52.90
2019-03-24T14:41:44.006Z,55.30
2019-03-24T14:44:12.361Z,54.43
2019-03-24T14:46:41.060Z,50.50
2019-03-24T14:49:09.149Z,55.93
2019-03-24T14:51:37.289Z,58.57
2019-03-24T14:54:05.413Z,52.47
2019-03-24T14:56:34.130Z,57.90
2019-03-24T14:59:02.339Z,51.43
2019-03-24T15:01:30.521Z,57.97
2019-03-24T15:03:58.978Z,50.70
2019-03-24T15:06:27.106Z,54.47
2019-03-24T15:08:55.241Z,48.67
2019-03-24T15:11:23.655Z,47.60
2019-03-24T15:14:41.272Z,53.30
2019-03-24T15:17:17.597Z,56.77
2019-03-24T15:19:45.780Z,54.23
2019-03-24T15:22:14.115Z,58.93
2019-03-24T15:24:42.200Z,53.70
2019-03-24T15:27:13.789Z,48.43
2019-03-24T15:29:42.083Z,49.40
2019-03-24T15:32:10.286Z,54.63
2019-03-24T15:34:38.821Z,56.43
2019-03-24T15:37:07.256Z,54.90
2019-03-24T15:39:35.431Z,58.73
2019-03-24T15:42:04.005Z,60.47
2019-03-24T15:44:32.214Z,57.33
2019-03-24T15:47:01.580Z,52.40
2019-03-24T15:49:31.639Z,62.33
2019-03-24T15:52:03.427Z,57.20
2019-03-24T15:54:31.869Z,52.73
2019-03-24T15:57:03.516Z,58.53
2019-03-24T15:59:38.717Z,61.93
2019-03-24T16:02:10.524Z,55.37
2019-03-24T16:04:38.683Z,58.27
2019-03-24T16:07:06.980Z,60.40
2019-03-24T16:09:35.349Z,52.13
2019-03-24T16:12:03.736Z,52.10
2019-03-24T16:14:31.982Z,55.43
2019-03-24T16:17:00.390Z,52.43
2019-03-24T16:19:28.720Z,64.10
2019-03-24T16:21:56.844Z,57.93
2019-03-24T16:24:27.216Z,62.10
2019-03-24T16:26:55.324Z,59.37
2019-03-24T16:29:25.433Z,58.20
2019-03-24T16:31:53.458Z,58.07
2019-03-24T16:34:23.283Z,61.30
2019-03-24T16:36:51.383Z,57.17
2019-03-24T16:39:19.494Z,60.20
2019-03-24T16:41:49.719Z,53.07
2019-03-24T16:44:17.855Z,53.97
2019-03-24T16:46:45.885Z,65.43
2019-03-24T16:49:14.031Z,56.03
2019-03-24T16:51:42.206Z,54.50
2019-03-24T16:54:11.353Z,58.90
2019-03-24T16:56:39.592Z,56.23
2019-03-24T16:59:07.783Z,54.50
2019-03-24T17:01:36.038Z,52.47
2019-03-24T17:04:04.172Z,55.30
2019-03-24T17:06:32.301Z,55.97
2019-03-24T17:09:00.701Z,57.97
2019-03-24T17:11:29.041Z,54.17
2019-03-24T17:13:58.960Z,51.40
2019-03-24T17:16:27.749Z,52.43
2019-03-24T17:18:55.983Z,57.60
2019-03-24T17:21:28.476Z,56.50
2019-03-24T17:23:56.710Z,55.60
2019-03-24T17:26:24.944Z,54.70
2019-03-24T17:28:53.660Z,59.07
2019-03-24T17:31:21.733Z,53.43
2019-03-24T17:33:49.982Z,59.23
2019-03-24T17:36:18.048Z,50.53
2019-03-24T17:38:46.138Z,55.23
2019-03-24T17:41:14.281Z,58.03
2019-03-24T17:43:42.418Z,56.47
2019-03-24T17:46:10.601Z,57.23
2019-03-24T17:48:38.772Z,52.47
2019-03-24T17:51:09.055Z,55.17
2019-03-24T17:53:37.810Z,55.63
2019-03-24T17:56:06.322Z,54.07
2019-03-24T17:58:34.436Z,51.90
2019-03-24T18:01:08.960Z,52.70
2019-03-24T18:03:37.124Z,58.13
2019-03-24T18:06:05.341Z,54.43
2019-03-24T18:08:33.737Z,52.50
2019-03-24T18:11:03.301Z,57.60
2019-03-24T18:13:31.618Z,37.80
2019-03-24T18:16:00.427Z,49.53
2019-03-24T18:18:40.876Z,51.20
2019-03-24T18:21:13.765Z,56.13
2019-03-24T18:23:44.666Z,52.67
2019-03-24T18:26:12.981Z,52.10
2019-03-24T18:28:41.212Z,53.03
2019-03-24T18:31:09.363Z,62.33
2019-03-24T18:33:49.993Z,50.70
2019-03-24T18:36:21.795Z,55.20
2019-03-24T18:38:50.211Z,62.13
2019-03-24T18:41:23.414Z,55.13
2019-03-24T18:43:53.247Z,56.47
2019-03-24T18:46:21.549Z,58.03
2019-03-24T18:48:50.337Z,55.53
2019-03-24T18:51:18.750Z,59.07
2019-03-24T18:53:46.874Z,57.47
2019-03-24T18:56:17.678Z,58.83
2019-03-24T18:58:46.930Z,61.23
2019-03-24T19:01:15.910Z,58.60
2019-03-24T19:03:46.495Z,55.63
2019-03-24T19:06:14.871Z,58.23
2019-03-24T19:08:43.412Z,74.47
2019-03-24T19:11:12.297Z,67.37
2019-03-24T19:13:40.935Z,65.27
2019-03-24T19:16:09.291Z,73.13
2019-03-24T19:18:44.145Z,71.30
2019-03-24T19:21:16.645Z,62.50
2019-03-24T19:23:45.097Z,54.03
2019-03-24T19:26:15.709Z,58.33
2019-03-24T19:28:46.134Z,57.00
2019-03-24T19:31:19.685Z,56.30
2019-03-24T19:33:53.154Z,64.97
2019-03-24T19:36:21.994Z,62.40
2019-03-24T19:38:50.385Z,61.03
2019-03-24T19:41:20.873Z,57.57
2019-03-24T19:43:49.257Z,51.97
2019-03-24T19:46:19.871Z,61.87
2019-03-24T19:48:48.261Z,60.47
2019-03-24T19:51:17.738Z,56.90
2019-03-24T19:53:45.789Z,56.30
2019-03-24T19:56:21.911Z,64.33
2019-03-24T19:58:53.578Z,64.23
2019-03-24T20:01:23.026Z,66.60
2019-03-24T20:03:54.138Z,58.70
2019-03-24T20:06:22.899Z,68.10
2019-03-24T20:08:53.747Z,66.83
2019-03-24T20:11:22.011Z,71.43
2019-03-24T20:13:51.997Z,64.67
2019-03-24T20:16:23.578Z,70.67
2019-03-24T20:18:55.219Z,67.97
2019-03-24T20:21:23.287Z,63.20
2019-03-24T20:23:51.373Z,60.87
2019-03-24T20:26:20.958Z,54.90
2019-03-24T20:28:50.293Z,60.63
2019-03-24T20:31:18.418Z,65.93
2019-03-24T20:33:46.468Z,66.97
2019-03-24T20:36:15.749Z,61.57
2019-03-24T20:38:47.726Z,62.90
2019-03-24T20:41:15.942Z,70.93
2019-03-24T20:43:45.557Z,68.73
2019-03-24T20:46:13.584Z,61.33
2019-03-24T20:48:46.047Z,66.10
2019-03-24T20:51:17.487Z,68.70
2019-03-24T20:53:51.601Z,70.80
2019-03-24T20:56:19.726Z,64.20
2019-03-24T20:58:47.928Z,67.43
2019-03-24T21:01:18.662Z,70.13
2019-03-24T21:03:51.501Z,72.77
2019-03-24T21:06:22.550Z,75.43
2019-03-24T21:08:53.062Z,70.00
2019-03-24T21:11:21.250Z,70.10
2019-03-24T21:13:49.403Z,62.87
2019-03-24T21:16:25.303Z,72.40
2019-03-24T21:18:52.728Z,71.70
2019-03-24T21:21:20.726Z,68.73
2019-03-24T21:23:49.396Z,62.87
2019-03-24T21:26:17.860Z,69.57
2019-03-24T21:28:45.881Z,63.43
2019-03-24T21:31:13.916Z,67.67
2019-03-24T21:33:42.291Z,67.00
2019-03-24T21:36:10.489Z,63.50
2019-03-24T21:38:38.562Z,57.30
2019-03-24T21:41:06.612Z,60.33
2019-03-24T21:43:34.736Z,52.80
2019-03-24T21:46:02.918Z,58.70
2019-03-24T21:48:31.148Z,57.13
2019-03-24T21:51:00.648Z,59.77
2019-03-24T21:53:40.361Z,63.93
2019-03-24T21:56:01.499Z,61.40
2019-03-24T21:58:36.444Z,69.60
2019-03-24T22:01:04.478Z,58.40
2019-03-24T22:03:32.523Z,57.27
2019-03-24T22:06:02.614Z,60.73
2019-03-24T22:08:30.682Z,58.80
2019-03-24T22:10:58.837Z,56.63
2019-03-24T22:13:26.976Z,63.80
2019-03-24T22:15:54.976Z,62.27
2019-03-24T22:18:22.997Z,56.80
2019-03-24T22:20:51.014Z,56.30
2019-03-24T22:23:19.045Z,58.90
2019-03-24T22:25:47.075Z,61.80
2019-03-24T22:28:15.100Z,49.77
2019-03-24T22:30:43.104Z,56.00
2019-03-24T22:33:11.208Z,57.33
2019-03-24T22:35:39.208Z,56.53
2019-03-24T22:38:07.313Z,55.77
2019-03-24T22:40:35.268Z,61.10
2019-03-24T22:43:03.477Z,52.90
2019-03-24T22:45:31.575Z,55.37
2019-03-24T22:47:59.685Z,57.73
2019-03-24T22:50:28.064Z,54.20
2019-03-24T22:52:56.095Z,55.77
2019-03-24T22:55:24.112Z,55.13
2019-03-24T22:57:52.189Z,59.80
2019-03-24T23:00:41.976Z,53.60
2019-03-24T23:03:10.184Z,59.20
2019-03-24T23:05:38.183Z,50.37
2019-03-24T23:08:06.224Z,43.40
2019-03-24T23:10:34.237Z,36.90
2019-03-24T23:13:02.424Z,38.03
2019-03-24T23:15:30.608Z,35.00
2019-03-24T23:17:58.621Z,31.57
2019-03-24T23:20:26.636Z,34.90
2019-03-24T23:22:54.652Z,33.60
2019-03-24T23:25:22.696Z,26.53
2019-03-24T23:27:50.727Z,30.57
2019-03-24T23:30:19.061Z,30.33
2019-03-24T23:32:47.112Z,31.20
2019-03-24T23:35:15.427Z,33.13
2019-03-24T23:37:43.436Z,31.70
2019-03-24T23:40:11.779Z,30.50
2019-03-24T23:42:39.776Z,34.90
2019-03-24T23:45:08.311Z,33.73
2019-03-24T23:47:36.325Z,32.17
2019-03-24T23:50:05.011Z,37.70
2019-03-24T23:52:33.017Z,38.20
2019-03-24T23:55:01.129Z,31.20
2019-03-24T23:57:29.163Z,30.50
2019-03-24T23:59:57.193Z,33.77
